Αρχική σελίδα
METAR-TAF:

METAR-TAF

Αεροδρόμια :

Mombasa, Κένυα

γεωγραφικό πλάτος: 04-02S, γεωγραφικό μήκος: 039-37E, υψόμετρο: 57 μ

Παρών καιρός

Η αναφορά έγινε 1 ώρα και 21 λεπτά πριν, στις 14:00 UTC
Άνεμος 3 kt από Α/BA
Θερμοκρασία 30°C
Υγρασία 75%
Πίεση 1010 hPa
Ορατότητα 10 χλμ και άνω
Λίγα νέφη σε ύψος 2200 πόδια
Διάσπαρτα νέφη σε ύψος 9000 πόδια

METAR: HKMO 101400Z 07003KT 9999 FEW022 SCT090 30/25 Q1010 NOSIG

Χρόνος: 18:21 (15:21 UTC)


TAF: λείπει

Μετεωρολογικές αναφορές και προγνώσεις για περισσότερα από 4000 αεροδρόμια (δελτία METAR και TAF).

Οι διαθέσιμοι σταθμοί απεικονίζονται στο χάρτη με κίτρινες και κόκκινες κουκκίδες.

Μετακινήστε το ποντίκι πάνω από τις κουκκίδες για να δείτε το όνομα του σταθμού.

Στη συνέχεια, κάντε κλικ για να δείτε τις μετεωρολογικές αναφορές και τις προγνώσεις καιρού.

Για να αλλάξετε το χάρτη: κάντε κλικ στα πράσινα κουμπιά με τον μαύρο σταυρό για να ζουμάρετε, στο πράσινο κουμπί με την παύλα για να αφαιρέσετε το ζουμ ή στα πράσινα βέλη για να αντιπαραβάλλετε χάρτες.


METAR-TAF: